createdAt,value
2023-04-22T00:00:02.755Z,10.40
2023-04-22T00:02:53.032Z,10.30
2023-04-22T00:05:42.198Z,10.30
2023-04-22T00:08:31.601Z,10.20
2023-04-22T00:11:19.313Z,10.20
2023-04-22T00:14:07.179Z,10.10
2023-04-22T00:16:54.661Z,10.10
2023-04-22T00:19:44.098Z,10.00
2023-04-22T00:22:31.803Z,10.00
2023-04-22T00:25:20.989Z,10.00
2023-04-22T00:28:08.853Z,10.00
2023-04-22T00:30:56.516Z,9.90
2023-04-22T00:33:43.977Z,9.90
2023-04-22T00:36:31.684Z,9.90
2023-04-22T00:39:19.254Z,9.80
2023-04-22T00:42:11.032Z,9.80
2023-04-22T00:44:59.118Z,9.80
2023-04-22T00:47:47.602Z,9.80
2023-04-22T00:50:35.540Z,9.80
2023-04-22T00:53:22.695Z,9.80
2023-04-22T00:56:10.486Z,9.80
2023-04-22T00:59:00.373Z,9.80
2023-04-22T01:01:48.782Z,9.70
2023-04-22T01:04:37.191Z,9.60
2023-04-22T01:07:25.447Z,9.60
2023-04-22T01:10:13.089Z,9.60
2023-04-22T01:13:01.475Z,9.60
2023-04-22T01:15:51.329Z,9.50
2023-04-22T01:18:39.170Z,9.60
2023-04-22T01:21:28.174Z,9.60
2023-04-22T01:24:17.335Z,9.50
2023-04-22T01:27:05.236Z,9.50
2023-04-22T01:29:53.612Z,9.50
2023-04-22T01:32:41.887Z,9.50
2023-04-22T01:35:30.799Z,9.50
2023-04-22T01:38:18.821Z,9.50
2023-04-22T01:41:10.680Z,9.50
2023-04-22T01:44:01.811Z,9.50
2023-04-22T01:46:49.195Z,9.50
2023-04-22T01:49:37.588Z,9.40
2023-04-22T01:52:27.925Z,9.40
2023-04-22T01:55:18.320Z,9.40
2023-04-22T01:58:07.629Z,9.30
2023-04-22T02:00:56.588Z,9.30
2023-04-22T02:03:44.028Z,9.30
2023-04-22T02:06:33.793Z,9.20
2023-04-22T02:09:25.014Z,9.20
2023-04-22T02:12:15.896Z,9.20
2023-04-22T02:15:04.732Z,9.10
2023-04-22T02:17:53.350Z,9.10
2023-04-22T02:20:40.995Z,9.10
2023-04-22T02:23:29.796Z,9.10
2023-04-22T02:26:17.704Z,9.10
2023-04-22T02:29:05.372Z,9.00
2023-04-22T02:31:54.343Z,9.00
2023-04-22T02:34:42.234Z,8.90
2023-04-22T02:37:29.801Z,8.90
2023-04-22T02:40:17.353Z,8.80
2023-04-22T02:43:06.251Z,8.80
2023-04-22T02:45:53.585Z,8.80
2023-04-22T02:48:42.891Z,8.70
2023-04-22T02:51:31.317Z,8.70
2023-04-22T02:54:19.118Z,8.70
2023-04-22T02:57:07.110Z,8.60
2023-04-22T02:59:55.170Z,8.60
2023-04-22T03:02:45.335Z,8.50
2023-04-22T03:05:36.951Z,8.50
2023-04-22T03:08:24.873Z,8.40
2023-04-22T03:11:14.059Z,8.40
2023-04-22T03:14:03.014Z,8.30
2023-04-22T03:16:51.327Z,8.30
2023-04-22T03:19:39.965Z,8.30
2023-04-22T03:22:29.649Z,8.20
2023-04-22T03:25:21.375Z,8.20
2023-04-22T03:28:13.316Z,8.20
2023-04-22T03:31:01.717Z,8.10
2023-04-22T03:33:49.963Z,8.10
2023-04-22T03:36:46.529Z,8.00
2023-04-22T03:39:35.976Z,8.00
2023-04-22T03:42:23.550Z,8.00
2023-04-22T03:45:12.964Z,7.90
2023-04-22T03:48:07.138Z,7.90
2023-04-22T03:51:03.984Z,7.80
2023-04-22T03:53:55.984Z,7.80
2023-04-22T03:56:48.027Z,7.80
2023-04-22T03:59:36.385Z,7.70
2023-04-22T04:02:23.842Z,7.70
2023-04-22T04:05:12.668Z,7.70
2023-04-22T04:08:01.499Z,7.70
2023-04-22T04:10:51.419Z,7.70
2023-04-22T04:13:40.648Z,7.70
2023-04-22T04:16:39.294Z,7.70
2023-04-22T04:19:32.408Z,7.70
2023-04-22T04:22:21.086Z,7.60
2023-04-22T04:25:18.705Z,7.60
2023-04-22T04:28:09.901Z,7.60
2023-04-22T04:30:59.515Z,7.60
2023-04-22T04:33:48.258Z,7.60
2023-04-22T04:36:35.751Z,7.70
2023-04-22T04:39:34.178Z,7.60
2023-04-22T04:42:24.648Z,7.70
2023-04-22T04:45:20.520Z,7.70
2023-04-22T04:48:10.936Z,7.70
2023-04-22T04:51:01.987Z,7.80
2023-04-22T04:53:53.358Z,7.80
2023-04-22T04:56:41.763Z,7.80
2023-04-22T04:59:30.704Z,7.90
2023-04-22T05:02:18.967Z,8.00
2023-04-22T05:05:09.803Z,8.00
2023-04-22T05:07:58.760Z,8.10
2023-04-22T05:10:47.373Z,8.20
2023-04-22T05:13:36.262Z,8.30
2023-04-22T05:16:24.773Z,8.40
2023-04-22T05:19:12.546Z,8.50
2023-04-22T05:22:02.253Z,8.60
2023-04-22T05:24:51.305Z,8.70
2023-04-22T05:27:40.390Z,8.70
2023-04-22T05:30:28.155Z,8.90
2023-04-22T05:33:18.203Z,9.10
2023-04-22T05:36:13.583Z,9.20
2023-04-22T05:39:10.988Z,9.40
2023-04-22T05:42:12.458Z,9.50
2023-04-22T05:45:06.679Z,9.70
2023-04-22T05:48:02.662Z,9.90
2023-04-22T05:50:59.928Z,10.00
2023-04-22T05:53:59.300Z,10.20
2023-04-22T05:56:49.087Z,10.40
2023-04-22T05:59:37.184Z,10.60
2023-04-22T06:02:25.619Z,10.80
2023-04-22T06:05:13.906Z,11.00
2023-04-22T06:08:01.914Z,11.20
2023-04-22T06:10:52.149Z,11.30
2023-04-22T06:13:42.612Z,11.50
2023-04-22T06:16:31.148Z,11.70
2023-04-22T06:19:19.742Z,11.80
2023-04-22T06:22:08.021Z,12.00
2023-04-22T06:24:55.353Z,12.30
2023-04-22T06:27:43.139Z,12.40
2023-04-22T06:30:34.136Z,12.70
2023-04-22T06:33:21.910Z,12.80
2023-04-22T06:36:11.573Z,13.00
2023-04-22T06:39:00.235Z,13.20
2023-04-22T06:42:01.938Z,13.40
2023-04-22T06:45:06.010Z,13.70
2023-04-22T06:48:01.987Z,13.90
2023-04-22T06:51:05.976Z,14.10
2023-04-22T06:53:54.046Z,14.30
2023-04-22T06:56:41.667Z,14.40
2023-04-22T06:59:29.469Z,14.60
2023-04-22T07:02:17.807Z,14.90
2023-04-22T07:05:07.721Z,15.10
2023-04-22T07:07:55.525Z,15.20
2023-04-22T07:10:44.850Z,15.50
2023-04-22T07:13:52.551Z,15.60
2023-04-22T07:16:41.271Z,15.80
2023-04-22T07:19:28.932Z,16.10
2023-04-22T07:22:18.100Z,16.30
2023-04-22T07:25:07.533Z,16.50
2023-04-22T07:27:55.215Z,16.70
2023-04-22T07:30:43.391Z,17.00
2023-04-22T07:33:31.190Z,17.00
2023-04-22T07:36:33.548Z,17.30
2023-04-22T07:39:29.742Z,17.30
2023-04-22T07:42:20.094Z,17.50
2023-04-22T07:45:18.910Z,17.60
2023-04-22T07:48:11.144Z,17.70
2023-04-22T07:51:01.399Z,18.00
2023-04-22T07:53:56.860Z,18.10
2023-04-22T07:56:56.098Z,18.40
2023-04-22T07:59:52.396Z,18.50
2023-04-22T08:02:47.688Z,18.80
2023-04-22T08:05:41.366Z,19.20
2023-04-22T08:08:31.730Z,19.40
2023-04-22T08:11:27.544Z,19.80
2023-04-22T08:14:21.576Z,20.70
2023-04-22T08:17:15.547Z,21.50
2023-04-22T08:20:11.297Z,22.60
2023-04-22T08:23:03.323Z,24.00
2023-04-22T08:25:57.001Z,25.80
2023-04-22T08:28:49.697Z,26.90
2023-04-22T08:31:46.549Z,28.60
2023-04-22T08:34:40.950Z,30.30
2023-04-22T08:37:32.093Z,31.10
2023-04-22T08:40:22.792Z,32.20
2023-04-22T08:43:13.272Z,33.10
2023-04-22T08:46:03.344Z,34.00
2023-04-22T08:49:05.098Z,34.70
2023-04-22T08:51:56.744Z,35.30
2023-04-22T08:57:38.641Z,34.60
2023-04-22T09:00:32.068Z,34.00
2023-04-22T09:03:21.711Z,33.50
2023-04-22T09:06:16.727Z,33.60
2023-04-22T09:09:14.727Z,33.80
2023-04-22T09:12:28.440Z,34.20
2023-04-22T09:15:25.141Z,34.50
2023-04-22T09:18:16.734Z,35.20
2023-04-22T09:21:10.794Z,36.00
2023-04-22T09:24:07.163Z,36.80
2023-04-22T09:26:59.321Z,36.70
2023-04-22T09:29:52.706Z,36.10
2023-04-22T09:32:55.804Z,35.80
2023-04-22T09:35:50.359Z,35.50
2023-04-22T09:38:40.842Z,35.40
2023-04-22T09:41:39.947Z,35.70
2023-04-22T09:44:33.843Z,36.10
2023-04-22T09:47:31.042Z,36.70
2023-04-22T09:50:30.176Z,37.80
2023-04-22T09:53:22.465Z,38.70
2023-04-22T09:56:16.193Z,39.30
2023-04-22T10:02:08.519Z,40.10
2023-04-22T10:05:09.023Z,40.50
2023-04-22T10:08:00.598Z,40.60
2023-04-22T10:10:58.393Z,40.60
2023-04-22T10:13:49.311Z,39.60
2023-04-22T10:16:42.163Z,38.70
2023-04-22T10:19:31.110Z,37.70
2023-04-22T10:22:26.190Z,34.70
2023-04-22T10:25:27.909Z,34.50
2023-04-22T10:28:19.891Z,33.40
2023-04-22T10:31:24.922Z,32.30
2023-04-22T10:34:24.430Z,31.30
2023-04-22T10:37:26.298Z,30.10
2023-04-22T10:40:18.724Z,28.80
2023-04-22T10:43:06.803Z,27.80
2023-04-22T10:45:59.243Z,27.00
2023-04-22T10:48:57.486Z,26.50
2023-04-22T10:51:53.160Z,25.90
2023-04-22T10:55:05.233Z,25.50
2023-04-22T10:57:54.120Z,25.40
2023-04-22T11:00:53.364Z,25.30
2023-04-22T11:03:48.073Z,25.10
2023-04-22T11:06:43.137Z,25.00
2023-04-22T11:09:37.921Z,24.80
2023-04-22T11:12:51.211Z,24.70
2023-04-22T11:15:46.302Z,24.60
2023-04-22T11:18:37.333Z,24.60
2023-04-22T11:21:34.801Z,24.80
2023-04-22T11:24:26.127Z,24.90
2023-04-22T11:27:34.676Z,25.00
2023-04-22T11:30:32.096Z,25.10
2023-04-22T11:33:24.473Z,25.10
2023-04-22T11:36:20.503Z,25.00
2023-04-22T11:39:15.540Z,24.80
2023-04-22T11:42:04.325Z,24.60
2023-04-22T11:44:54.548Z,24.50
2023-04-22T11:47:43.718Z,24.50
2023-04-22T11:50:33.637Z,24.40
2023-04-22T11:53:24.424Z,24.40
2023-04-22T11:56:11.912Z,24.40
2023-04-22T11:59:00.147Z,24.40
2023-04-22T12:01:50.856Z,24.40
2023-04-22T12:04:40.079Z,24.50
2023-04-22T12:07:29.549Z,24.70
2023-04-22T12:10:17.956Z,24.80
2023-04-22T12:13:06.002Z,24.80
2023-04-22T12:15:57.686Z,24.80
2023-04-22T12:18:52.801Z,24.90
2023-04-22T12:21:44.381Z,25.00
2023-04-22T12:24:32.401Z,25.10
2023-04-22T12:27:20.156Z,25.10
2023-04-22T12:30:08.887Z,25.10
2023-04-22T12:32:56.767Z,25.10
2023-04-22T12:35:47.573Z,25.10
2023-04-22T12:38:36.736Z,25.10
2023-04-22T12:41:24.626Z,25.10
2023-04-22T12:44:12.961Z,25.10
2023-04-22T12:47:01.897Z,25.20
2023-04-22T12:49:50.191Z,25.10
2023-04-22T12:52:39.919Z,25.00
2023-04-22T12:55:28.576Z,25.00
2023-04-22T12:58:16.890Z,25.20
2023-04-22T13:01:04.684Z,25.40
2023-04-22T13:03:53.883Z,25.50
2023-04-22T13:06:44.092Z,25.40
2023-04-22T13:09:34.009Z,25.40
2023-04-22T13:12:22.112Z,25.70
2023-04-22T13:15:12.021Z,25.90
2023-04-22T13:18:00.403Z,26.00
2023-04-22T13:20:48.703Z,26.00
2023-04-22T13:23:36.602Z,26.00
2023-04-22T13:26:26.225Z,26.00
2023-04-22T13:29:14.571Z,26.00
2023-04-22T13:32:03.698Z,25.80
2023-04-22T13:34:51.566Z,26.00
2023-04-22T13:37:39.506Z,26.00
2023-04-22T13:40:28.340Z,25.90
2023-04-22T13:43:18.742Z,25.80
2023-04-22T13:46:07.144Z,25.70
2023-04-22T13:48:56.911Z,25.80
2023-04-22T13:51:45.329Z,25.90
2023-04-22T13:54:33.724Z,26.10
2023-04-22T13:57:24.588Z,26.30
2023-04-22T14:00:15.415Z,26.20
2023-04-22T14:03:03.759Z,26.10
2023-04-22T14:05:53.496Z,25.90
2023-04-22T14:08:41.357Z,25.70
2023-04-22T14:11:30.598Z,25.70
2023-04-22T14:14:20.893Z,25.70
2023-04-22T14:17:12.210Z,25.80
2023-04-22T14:20:00.220Z,25.80
2023-04-22T14:22:49.957Z,25.70
2023-04-22T14:25:38.022Z,25.60
2023-04-22T14:28:26.649Z,25.70
2023-04-22T14:31:15.497Z,25.70
2023-04-22T14:34:05.059Z,25.70
2023-04-22T14:36:53.011Z,25.80
2023-04-22T14:39:41.602Z,25.90
2023-04-22T14:42:30.337Z,25.80
2023-04-22T14:45:19.478Z,25.50
2023-04-22T14:48:08.225Z,25.40
2023-04-22T14:50:57.847Z,25.20
2023-04-22T14:53:45.516Z,25.20
2023-04-22T14:56:33.620Z,25.20
2023-04-22T14:59:24.305Z,25.00
2023-04-22T15:02:18.495Z,24.80
2023-04-22T15:05:06.801Z,24.80
2023-04-22T15:07:59.079Z,24.80
2023-04-22T15:10:47.295Z,24.80
2023-04-22T15:13:36.458Z,24.80
2023-04-22T15:16:24.234Z,24.70
2023-04-22T15:19:12.273Z,24.70
2023-04-22T15:22:00.254Z,24.60
2023-04-22T15:24:50.151Z,24.50
2023-04-22T15:27:39.204Z,24.40
2023-04-22T15:30:27.588Z,24.30
2023-04-22T15:33:15.571Z,24.30
2023-04-22T15:36:07.334Z,24.10
2023-04-22T15:38:57.662Z,24.10
2023-04-22T15:41:48.813Z,24.10
2023-04-22T15:44:36.734Z,24.10
2023-04-22T15:47:24.847Z,24.10
2023-04-22T15:50:13.119Z,24.10
2023-04-22T15:53:01.617Z,24.10
2023-04-22T15:55:50.128Z,24.10
2023-04-22T15:58:40.114Z,24.10
2023-04-22T16:01:28.261Z,24.00
2023-04-22T16:04:16.521Z,23.90
2023-04-22T16:07:06.316Z,23.80
2023-04-22T16:09:54.407Z,23.70
2023-04-22T16:12:44.060Z,23.60
2023-04-22T16:15:33.807Z,23.60
2023-04-22T16:18:21.968Z,23.50
2023-04-22T16:21:10.861Z,23.40
2023-04-22T16:23:59.393Z,23.40
2023-04-22T16:26:47.848Z,23.30
2023-04-22T16:29:35.913Z,23.20
2023-04-22T16:32:25.475Z,23.20
2023-04-22T16:35:15.575Z,23.10
2023-04-22T16:38:03.550Z,23.00
2023-04-22T16:40:54.614Z,23.00
2023-04-22T16:43:43.129Z,23.00
2023-04-22T16:46:31.005Z,23.00
2023-04-22T16:49:20.462Z,22.90
2023-04-22T16:52:08.611Z,22.80
2023-04-22T16:54:57.384Z,22.80
2023-04-22T16:57:47.958Z,22.70
2023-04-22T17:00:36.113Z,22.60
2023-04-22T17:03:24.271Z,22.50
2023-04-22T17:06:13.794Z,22.50
2023-04-22T17:09:01.451Z,22.40
2023-04-22T17:11:49.588Z,22.30
2023-04-22T17:14:38.008Z,22.20
2023-04-22T17:17:27.282Z,22.10
2023-04-22T17:20:15.336Z,22.10
2023-04-22T17:23:05.612Z,22.00
2023-04-22T17:25:53.650Z,21.90
2023-04-22T17:28:41.440Z,21.90
2023-04-22T17:31:29.926Z,21.80
2023-04-22T17:34:18.074Z,21.70
2023-04-22T17:37:06.672Z,21.60
2023-04-22T17:39:57.371Z,21.60
2023-04-22T17:42:46.506Z,21.60
2023-04-22T17:45:37.185Z,21.50
2023-04-22T17:48:25.212Z,21.60
2023-04-22T17:51:13.256Z,21.60
2023-04-22T17:56:53.002Z,21.50
2023-04-22T17:59:41.493Z,21.50
2023-04-22T18:02:29.306Z,21.30
2023-04-22T18:05:17.812Z,21.40
2023-04-22T18:08:05.696Z,21.30
2023-04-22T18:10:53.908Z,21.30
2023-04-22T18:13:45.243Z,21.20
2023-04-22T18:16:33.076Z,21.10
2023-04-22T18:19:20.874Z,21.00
2023-04-22T18:22:08.579Z,21.00
2023-04-22T18:24:59.203Z,20.90
2023-04-22T18:27:47.967Z,20.90
2023-04-22T18:30:37.215Z,20.80
2023-04-22T18:33:25.081Z,20.70
2023-04-22T18:36:12.584Z,20.60
2023-04-22T18:39:00.396Z,20.50
2023-04-22T18:41:49.041Z,20.50
2023-04-22T18:44:37.253Z,20.30
2023-04-22T18:47:26.877Z,20.30
2023-04-22T18:50:14.705Z,20.20
2023-04-22T18:53:02.732Z,20.10
2023-04-22T18:55:50.400Z,20.00
2023-04-22T18:58:38.141Z,20.00
2023-04-22T19:01:25.839Z,19.80
2023-04-22T19:04:15.254Z,19.80
2023-04-22T19:07:03.698Z,19.70
2023-04-22T19:09:51.339Z,19.60
2023-04-22T19:12:39.179Z,19.40
2023-04-22T19:15:27.019Z,19.40
2023-04-22T19:18:15.074Z,19.40
2023-04-22T19:21:04.407Z,19.30
2023-04-22T21:59:22.055Z,16.30
2023-04-22T22:02:09.897Z,16.30
2023-04-22T22:04:57.573Z,16.20
2023-04-22T22:07:46.249Z,16.10
2023-04-22T22:10:35.845Z,16.00
2023-04-22T22:13:23.436Z,16.00
2023-04-22T22:16:12.074Z,15.90
2023-04-22T22:19:02.930Z,15.80
2023-04-22T22:21:50.972Z,15.80
2023-04-22T22:24:38.887Z,15.70
2023-04-22T22:27:28.657Z,15.70
2023-04-22T22:30:18.302Z,15.70
2023-04-22T22:33:05.948Z,15.70
2023-04-22T22:35:53.815Z,15.70
2023-04-22T22:38:41.265Z,15.70
2023-04-22T22:41:28.555Z,15.70
2023-04-22T22:44:17.720Z,15.70
2023-04-22T22:47:06.234Z,15.70
2023-04-22T22:49:54.452Z,15.70
2023-04-22T22:52:42.305Z,15.70
2023-04-22T22:55:30.001Z,15.70
2023-04-22T22:58:18.011Z,15.70
2023-04-22T23:01:07.508Z,15.60
2023-04-22T23:03:55.583Z,15.60
2023-04-22T23:06:43.705Z,15.60
2023-04-22T23:09:31.227Z,15.60
2023-04-22T23:12:18.639Z,15.60
2023-04-22T23:15:07.889Z,15.60
2023-04-22T23:17:57.409Z,15.60
2023-04-22T23:20:45.657Z,15.60
2023-04-22T23:23:34.375Z,15.50
2023-04-22T23:26:22.248Z,15.50
2023-04-22T23:29:10.526Z,15.50
2023-04-22T23:31:58.562Z,15.40
2023-04-22T23:34:51.285Z,15.40
2023-04-22T23:37:39.666Z,15.40
2023-04-22T23:40:27.449Z,15.40
2023-04-22T23:43:15.397Z,15.40
2023-04-22T23:46:03.590Z,15.40
2023-04-22T23:48:51.226Z,15.40
2023-04-22T23:51:40.542Z,15.40
2023-04-22T23:54:28.733Z,15.30
2023-04-22T23:57:17.936Z,15.30
